sensor_id;sensor_type;location;lat;lon;timestamp;pressure;altitude;pressure_sealevel;temperature;humidity
18985;BME280;9626;52.552;13.436;2024-01-15T00:01:17;98760.59;;;1.86;100.00
18985;BME280;9626;52.552;13.436;2024-01-15T00:03:43;98750.91;;;1.93;100.00
18985;BME280;9626;52.552;13.436;2024-01-15T00:06:09;98748.34;;;1.92;100.00
18985;BME280;9626;52.552;13.436;2024-01-15T00:08:35;98738.91;;;1.83;100.00
18985;BME280;9626;52.552;13.436;2024-01-15T00:11:02;98734.56;;;1.82;100.00
18985;BME280;9626;52.552;13.436;2024-01-15T00:13:28;98744.16;;;1.80;100.00
18985;BME280;9626;52.552;13.436;2024-01-15T00:15:54;98751.22;;;1.75;100.00
18985;BME280;9626;52.552;13.436;2024-01-15T00:18:20;98719.84;;;1.78;100.00
18985;BME280;9626;52.552;13.436;2024-01-15T00:20:46;98727.47;;;1.90;100.00
18985;BME280;9626;52.552;13.436;2024-01-15T00:23:12;98724.97;;;1.82;100.00
18985;BME280;9626;52.552;13.436;2024-01-15T00:25:38;98711.03;;;1.85;100.00
18985;BME280;9626;52.552;13.436;2024-01-15T00:28:04;98701.50;;;1.82;100.00
18985;BME280;9626;52.552;13.436;2024-01-15T00:30:30;98709.16;;;1.93;100.00
18985;BME280;9626;52.552;13.436;2024-01-15T00:32:56;98711.03;;;1.85;100.00
18985;BME280;9626;52.552;13.436;2024-01-15T00:35:23;98696.28;;;1.82;100.00
18985;BME280;9626;52.552;13.436;2024-01-15T00:37:49;98694.47;;;1.88;100.00
18985;BME280;9626;52.552;13.436;2024-01-15T00:40:15;98704.06;;;1.87;100.00
18985;BME280;9626;52.552;13.436;2024-01-15T00:42:41;98692.66;;;1.91;100.00
18985;BME280;9626;52.552;13.436;2024-01-15T00:45:07;98691.88;;;1.86;100.00
18985;BME280;9626;52.552;13.436;2024-01-15T00:47:34;98684.72;;;1.97;100.00
18985;BME280;9626;52.552;13.436;2024-01-15T00:50:00;98692.81;;;1.82;100.00
18985;BME280;9626;52.552;13.436;2024-01-15T00:52:32;98670.84;;;1.95;100.00
18985;BME280;9626;52.552;13.436;2024-01-15T00:54:58;98682.25;;;1.88;100.00
18985;BME280;9626;52.552;13.436;2024-01-15T00:57:24;98663.84;;;1.97;100.00
18985;BME280;9626;52.552;13.436;2024-01-15T00:59:50;98655.34;;;1.86;100.00
18985;BME280;9626;52.552;13.436;2024-01-15T01:02:16;98672.03;;;1.77;100.00
18985;BME280;9626;52.552;13.436;2024-01-15T01:04:42;98681.63;;;1.74;100.00
18985;BME280;9626;52.552;13.436;2024-01-15T01:07:18;98653.81;;;1.73;100.00
18985;BME280;9626;52.552;13.436;2024-01-15T01:09:45;98653.00;;;1.71;100.00
18985;BME280;9626;52.552;13.436;2024-01-15T01:12:11;98660.06;;;1.64;100.00
18985;BME280;9626;52.552;13.436;2024-01-15T01:14:37;98654.16;;;1.51;100.00
18985;BME280;9626;52.552;13.436;2024-01-15T01:17:03;98650.78;;;1.43;100.00
18985;BME280;9626;52.552;13.436;2024-01-15T01:19:29;98661.19;;;1.47;100.00
18985;BME280;9626;52.552;13.436;2024-01-15T01:21:56;98661.34;;;1.37;100.00
18985;BME280;9626;52.552;13.436;2024-01-15T01:24:22;98657.91;;;1.31;100.00
18985;BME280;9626;52.552;13.436;2024-01-15T01:26:48;98668.28;;;1.34;100.00
18985;BME280;9626;52.552;13.436;2024-01-15T01:29:14;98654.47;;;1.29;100.00
18985;BME280;9626;52.552;13.436;2024-01-15T01:31:44;98663.19;;;1.27;100.00
18985;BME280;9626;52.552;13.436;2024-01-15T01:34:13;98649.13;;;1.39;100.00
18985;BME280;9626;52.552;13.436;2024-01-15T01:36:39;98653.50;;;1.37;100.00
18985;BME280;9626;52.552;13.436;2024-01-15T01:39:06;98657.75;;;1.44;100.00
18985;BME280;9626;52.552;13.436;2024-01-15T01:41:32;98647.25;;;1.47;100.00
18985;BME280;9626;52.552;13.436;2024-01-15T01:43:58;98649.81;;;1.51;100.00
18985;BME280;9626;52.552;13.436;2024-01-15T01:46:24;98660.22;;;1.53;100.00
18985;BME280;9626;52.552;13.436;2024-01-15T01:48:52;98657.75;;;1.44;100.00
18985;BME280;9626;52.552;13.436;2024-01-15T01:51:19;98655.94;;;1.46;100.00
18985;BME280;9626;52.552;13.436;2024-01-15T01:53:46;98654.38;;;1.35;100.00
18985;BME280;9626;52.552;13.436;2024-01-15T01:56:12;98652.38;;;1.53;100.00
18985;BME280;9626;52.552;13.436;2024-01-15T01:58:39;98661.28;;;1.40;100.00
18985;BME280;9626;52.552;13.436;2024-01-15T02:01:06;98660.44;;;1.39;100.00
18985;BME280;9626;52.552;13.436;2024-01-15T02:03:32;98653.47;;;1.38;100.00
18985;BME280;9626;52.552;13.436;2024-01-15T02:05:59;98644.78;;;1.38;100.00
18985;BME280;9626;52.552;13.436;2024-01-15T02:08:26;98644.81;;;1.36;100.00
18985;BME280;9626;52.552;13.436;2024-01-15T02:10:52;98640.34;;;1.43;100.00
18985;BME280;9626;52.552;13.436;2024-01-15T02:13:21;98637.53;;;1.57;100.00
18985;BME280;9626;52.552;13.436;2024-01-15T02:15:48;98632.47;;;1.47;100.00
18985;BME280;9626;52.552;13.436;2024-01-15T02:18:14;98644.59;;;1.51;100.00
18985;BME280;9626;52.552;13.436;2024-01-15T02:20:40;98649.13;;;1.39;100.00
18985;BME280;9626;52.552;13.436;2024-01-15T02:23:10;98648.34;;;1.32;100.00
18985;BME280;9626;52.552;13.436;2024-01-15T02:25:46;98652.53;;;1.44;100.00
18985;BME280;9626;52.552;13.436;2024-01-15T02:28:18;98639.53;;;1.41;100.00
18985;BME280;9626;52.552;13.436;2024-01-15T02:30:44;98635.25;;;1.37;100.00
18985;BME280;9626;52.552;13.436;2024-01-15T02:33:13;98646.44;;;1.42;100.00
18985;BME280;9626;52.552;13.436;2024-01-15T02:35:42;98633.47;;;1.39;100.00
18985;BME280;9626;52.552;13.436;2024-01-15T02:38:08;98634.34;;;1.38;100.00
18985;BME280;9626;52.552;13.436;2024-01-15T02:40:35;98628.19;;;1.43;100.00
18985;BME280;9626;52.552;13.436;2024-01-15T02:43:01;98630.84;;;1.39;100.00
18985;BME280;9626;52.552;13.436;2024-01-15T02:45:29;98616.84;;;1.44;100.00
18985;BME280;9626;52.552;13.436;2024-01-15T02:47:55;98618.59;;;1.45;100.00
18985;BME280;9626;52.552;13.436;2024-01-15T02:50:21;98623.81;;;1.44;100.00
18985;BME280;9626;52.552;13.436;2024-01-15T02:52:47;98627.31;;;1.43;100.00
18985;BME280;9626;52.552;13.436;2024-01-15T02:55:14;98621.03;;;1.56;100.00
18985;BME280;9626;52.552;13.436;2024-01-15T02:57:46;98628.97;;;1.48;100.00
18985;BME280;9626;52.552;13.436;2024-01-15T03:00:12;98626.19;;;1.59;100.00
18985;BME280;9626;52.552;13.436;2024-01-15T03:02:51;98621.09;;;1.50;100.00
18985;BME280;9626;52.552;13.436;2024-01-15T03:05:35;98621.94;;;1.54;100.00
18985;BME280;9626;52.552;13.436;2024-01-15T03:08:20;98634.91;;;1.58;100.00
18985;BME280;9626;52.552;13.436;2024-01-15T03:10:46;98612.38;;;1.54;100.00
18985;BME280;9626;52.552;13.436;2024-01-15T03:13:12;98617.47;;;1.60;100.00
18985;BME280;9626;52.552;13.436;2024-01-15T03:15:40;98609.44;;;1.73;100.00
18985;BME280;9626;52.552;13.436;2024-01-15T03:18:07;98610.56;;;1.58;100.00
18985;BME280;9626;52.552;13.436;2024-01-15T03:20:32;98601.94;;;1.54;100.00
18985;BME280;9626;52.552;13.436;2024-01-15T03:22:59;98614.00;;;1.61;100.00
18985;BME280;9626;52.552;13.436;2024-01-15T03:25:25;98621.88;;;1.57;100.00
18985;BME280;9626;52.552;13.436;2024-01-15T03:27:51;98610.53;;;1.59;100.00
18985;BME280;9626;52.552;13.436;2024-01-15T03:30:17;98609.53;;;1.68;100.00
18985;BME280;9626;52.552;13.436;2024-01-15T03:32:43;98612.13;;;1.69;100.00
18985;BME280;9626;52.552;13.436;2024-01-15T03:35:09;98601.72;;;1.65;100.00
18985;BME280;9626;52.552;13.436;2024-01-15T03:37:35;98597.47;;;1.61;100.00
18985;BME280;9626;52.552;13.436;2024-01-15T03:40:01;98587.09;;;1.58;100.00
18985;BME280;9626;52.552;13.436;2024-01-15T03:42:28;98582.69;;;1.61;100.00
18985;BME280;9626;52.552;13.436;2024-01-15T03:44:54;98581.00;;;1.57;100.00
18985;BME280;9626;52.552;13.436;2024-01-15T03:47:20;98594.13;;;1.54;100.00
18985;BME280;9626;52.552;13.436;2024-01-15T03:49:46;98591.38;;;1.60;100.00
18985;BME280;9626;52.552;13.436;2024-01-15T03:52:12;98595.72;;;1.61;100.00
18985;BME280;9626;52.552;13.436;2024-01-15T03:54:38;98580.31;;;1.47;100.00
18985;BME280;9626;52.552;13.436;2024-01-15T03:57:04;98588.00;;;1.55;100.00
18985;BME280;9626;52.552;13.436;2024-01-15T03:59:30;98567.16;;;1.54;100.00
18985;BME280;9626;52.552;13.436;2024-01-15T04:01:56;98557.56;;;1.56;100.00
18985;BME280;9626;52.552;13.436;2024-01-15T04:04:22;98568.84;;;1.56;100.00
18985;BME280;9626;52.552;13.436;2024-01-15T04:06:48;98562.75;;;1.57;100.00
18985;BME280;9626;52.552;13.436;2024-01-15T04:09:14;98560.94;;;1.62;100.00
18985;BME280;9626;52.552;13.436;2024-01-15T04:11:40;98550.59;;;1.56;100.00
18985;BME280;9626;52.552;13.436;2024-01-15T04:14:06;98554.00;;;1.60;100.00
18985;BME280;9626;52.552;13.436;2024-01-15T04:16:32;98547.00;;;1.62;100.00
18985;BME280;9626;52.552;13.436;2024-01-15T04:18:58;98560.19;;;1.56;100.00
18985;BME280;9626;52.552;13.436;2024-01-15T04:21:24;98536.59;;;1.60;100.00
18985;BME280;9626;52.552;13.436;2024-01-15T04:23:50;98540.81;;;1.67;100.00
18985;BME280;9626;52.552;13.436;2024-01-15T04:26:16;98530.38;;;1.67;100.00
18985;BME280;9626;52.552;13.436;2024-01-15T04:28:42;98543.41;;;1.71;100.00
18985;BME280;9626;52.552;13.436;2024-01-15T04:31:08;98550.31;;;1.72;100.00
18985;BME280;9626;52.552;13.436;2024-01-15T04:33:34;98569.69;;;1.57;100.00
18985;BME280;9626;52.552;13.436;2024-01-15T04:36:04;98551.25;;;1.67;100.00
18985;BME280;9626;52.552;13.436;2024-01-15T04:38:31;98562.59;;;1.66;100.00
18985;BME280;9626;52.552;13.436;2024-01-15T04:40:58;98534.66;;;1.72;100.00
18985;BME280;9626;52.552;13.436;2024-01-15T04:43:24;98540.72;;;1.74;100.00
18985;BME280;9626;52.552;13.436;2024-01-15T04:45:50;98533.72;;;1.76;100.00
18985;BME280;9626;52.552;13.436;2024-01-15T04:48:16;98520.69;;;1.74;100.00
18985;BME280;9626;52.552;13.436;2024-01-15T04:50:42;98536.44;;;1.69;100.00
18985;BME280;9626;52.552;13.436;2024-01-15T04:53:08;98537.09;;;1.81;100.00
18985;BME280;9626;52.552;13.436;2024-01-15T04:55:34;98532.75;;;1.80;100.00
18985;BME280;9626;52.552;13.436;2024-01-15T04:58:00;98514.50;;;1.80;100.00
18985;BME280;9626;52.552;13.436;2024-01-15T05:00:26;98524.13;;;1.78;100.00
18985;BME280;9626;52.552;13.436;2024-01-15T05:02:52;98506.66;;;1.80;100.00
18985;BME280;9626;52.552;13.436;2024-01-15T05:05:18;98518.69;;;1.89;100.00
18985;BME280;9626;52.552;13.436;2024-01-15T05:07:44;98521.44;;;1.81;100.00
18985;BME280;9626;52.552;13.436;2024-01-15T05:10:10;98520.50;;;1.85;100.00
18985;BME280;9626;52.552;13.436;2024-01-15T05:12:36;98516.13;;;1.87;100.00
18985;BME280;9626;52.552;13.436;2024-01-15T05:15:03;98519.47;;;1.92;100.00
18985;BME280;9626;52.552;13.436;2024-01-15T05:17:29;98519.72;;;1.81;100.00
18985;BME280;9626;52.552;13.436;2024-01-15T05:19:55;98510.81;;;1.92;100.00
18985;BME280;9626;52.552;13.436;2024-01-15T05:22:21;98528.31;;;1.85;100.00
18985;BME280;9626;52.552;13.436;2024-01-15T05:24:47;98503.09;;;1.84;100.00
18985;BME280;9626;52.552;13.436;2024-01-15T05:27:13;98512.59;;;1.88;100.00
18985;BME280;9626;52.552;13.436;2024-01-15T05:29:39;98498.22;;;1.67;100.00
18985;BME280;9626;52.552;13.436;2024-01-15T05:32:05;98498.81;;;1.83;100.00
18985;BME280;9626;52.552;13.436;2024-01-15T05:34:31;98516.38;;;1.72;100.00
18985;BME280;9626;52.552;13.436;2024-01-15T05:36:57;98485.84;;;1.77;100.00
18985;BME280;9626;52.552;13.436;2024-01-15T05:39:23;98491.88;;;1.80;100.00
18985;BME280;9626;52.552;13.436;2024-01-15T05:41:49;98502.41;;;1.77;100.00
18985;BME280;9626;52.552;13.436;2024-01-15T05:44:16;98504.03;;;1.83;100.00
18985;BME280;9626;52.552;13.436;2024-01-15T05:46:42;98497.81;;;1.89;100.00
18985;BME280;9626;52.552;13.436;2024-01-15T05:49:08;98510.88;;;1.89;100.00
18985;BME280;9626;52.552;13.436;2024-01-15T05:51:34;98495.78;;;2.05;100.00
18985;BME280;9626;52.552;13.436;2024-01-15T05:54:06;98492.25;;;2.06;100.00
18985;BME280;9626;52.552;13.436;2024-01-15T05:56:32;98489.78;;;1.99;100.00
18985;BME280;9626;52.552;13.436;2024-01-15T05:58:58;98491.50;;;2.00;100.00
18985;BME280;9626;52.552;13.436;2024-01-15T06:01:24;98494.31;;;1.90;100.00
18985;BME280;9626;52.552;13.436;2024-01-15T06:04:03;98485.78;;;1.80;100.00
18985;BME280;9626;52.552;13.436;2024-01-15T06:06:29;98505.72;;;1.85;100.00
18985;BME280;9626;52.552;13.436;2024-01-15T06:08:55;98498.81;;;1.83;100.00
18985;BME280;9626;52.552;13.436;2024-01-15T06:11:21;98502.06;;;1.94;100.00
18985;BME280;9626;52.552;13.436;2024-01-15T06:13:47;98515.28;;;1.85;100.00
18985;BME280;9626;52.552;13.436;2024-01-15T06:16:14;98487.19;;;1.98;100.00
18985;BME280;9626;52.552;13.436;2024-01-15T06:18:42;98498.38;;;2.05;100.00
18985;BME280;9626;52.552;13.436;2024-01-15T06:21:08;98496.66;;;2.03;100.00
18985;BME280;9626;52.552;13.436;2024-01-15T06:23:37;98495.00;;;1.99;100.00
18985;BME280;9626;52.552;13.436;2024-01-15T06:26:03;98498.31;;;2.08;100.00
18985;BME280;9626;52.552;13.436;2024-01-15T06:28:29;98486.88;;;2.13;100.00
18985;BME280;9626;52.552;13.436;2024-01-15T06:30:56;98493.88;;;2.13;100.00
18985;BME280;9626;52.552;13.436;2024-01-15T06:33:22;98484.97;;;2.22;100.00
18985;BME280;9626;52.552;13.436;2024-01-15T06:35:49;98510.97;;;2.26;100.00
18985;BME280;9626;52.552;13.436;2024-01-15T06:38:16;98491.19;;;2.16;100.00
18985;BME280;9626;52.552;13.436;2024-01-15T06:40:42;98485.22;;;2.09;100.00
18985;BME280;9626;52.552;13.436;2024-01-15T06:43:13;98473.81;;;2.13;100.00
18985;BME280;9626;52.552;13.436;2024-01-15T06:45:39;98493.88;;;2.11;100.00
18985;BME280;9626;52.552;13.436;2024-01-15T06:48:05;98482.66;;;2.08;100.00
18985;BME280;9626;52.552;13.436;2024-01-15T06:50:33;98476.72;;;1.99;100.00
18985;BME280;9626;52.552;13.436;2024-01-15T06:52:59;98487.09;;;2.02;100.00
18985;BME280;9626;52.552;13.436;2024-01-15T06:55:25;98498.19;;;2.14;100.00
18985;BME280;9626;52.552;13.436;2024-01-15T06:57:52;98508.53;;;2.18;100.00
18985;BME280;9626;52.552;13.436;2024-01-15T07:00:18;98500.75;;;2.15;100.00
18985;BME280;9626;52.552;13.436;2024-01-15T07:02:45;98487.72;;;2.14;100.00
18985;BME280;9626;52.552;13.436;2024-01-15T07:05:14;98493.75;;;2.17;100.00
18985;BME280;9626;52.552;13.436;2024-01-15T07:07:40;98503.94;;;2.30;100.00
18985;BME280;9626;52.552;13.436;2024-01-15T07:10:07;98515.47;;;2.21;100.00
18985;BME280;9626;52.552;13.436;2024-01-15T07:12:33;98513.56;;;2.29;100.00
18985;BME280;9626;52.552;13.436;2024-01-15T07:14:59;98518.31;;;2.09;100.00
18985;BME280;9626;52.552;13.436;2024-01-15T07:17:25;98530.28;;;2.19;100.00
18985;BME280;9626;52.552;13.436;2024-01-15T07:19:51;98530.38;;;2.14;100.00
18985;BME280;9626;52.552;13.436;2024-01-15T07:22:17;98536.28;;;2.24;100.00
18985;BME280;9626;52.552;13.436;2024-01-15T07:24:43;98527.09;;;2.05;100.00
18985;BME280;9626;52.552;13.436;2024-01-15T07:27:09;98520.00;;;2.10;100.00
18985;BME280;9626;52.552;13.436;2024-01-15T07:29:35;98526.09;;;2.12;100.00
18985;BME280;9626;52.552;13.436;2024-01-15T07:32:03;98534.75;;;2.12;100.00
18985;BME280;9626;52.552;13.436;2024-01-15T07:34:30;98526.88;;;2.17;100.00
18985;BME280;9626;52.552;13.436;2024-01-15T07:36:57;98533.03;;;2.11;100.00
18985;BME280;9626;52.552;13.436;2024-01-15T07:39:28;98553.94;;;2.13;100.00
18985;BME280;9626;52.552;13.436;2024-01-15T07:41:56;98545.91;;;2.20;100.00
18985;BME280;9626;52.552;13.436;2024-01-15T07:44:22;98539.91;;;2.17;100.00
18985;BME280;9626;52.552;13.436;2024-01-15T07:46:48;98554.47;;;2.29;100.00
18985;BME280;9626;52.552;13.436;2024-01-15T07:49:14;98546.00;;;2.17;100.00
18985;BME280;9626;52.552;13.436;2024-01-15T07:51:40;98538.06;;;2.22;100.00
18985;BME280;9626;52.552;13.436;2024-01-15T07:54:06;98557.03;;;2.30;100.00
18985;BME280;9626;52.552;13.436;2024-01-15T07:56:33;98559.06;;;2.16;100.00
18985;BME280;9626;52.552;13.436;2024-01-15T07:58:59;98560.66;;;2.23;100.00
18985;BME280;9626;52.552;13.436;2024-01-15T08:01:25;98561.59;;;2.20;100.00
18985;BME280;9626;52.552;13.436;2024-01-15T08:03:51;98567.59;;;2.26;100.00
18985;BME280;9626;52.552;13.436;2024-01-15T08:06:18;98562.09;;;2.40;100.00
18985;BME280;9626;52.552;13.436;2024-01-15T08:08:44;98556.75;;;2.46;100.00
18985;BME280;9626;52.552;13.436;2024-01-15T08:11:11;98557.03;;;2.30;100.00
18985;BME280;9626;52.552;13.436;2024-01-15T08:13:37;98552.72;;;2.29;100.00
18985;BME280;9626;52.552;13.436;2024-01-15T08:16:03;98546.34;;;2.44;100.00
18985;BME280;9626;52.552;13.436;2024-01-15T08:18:42;98557.91;;;2.31;100.00
18985;BME280;9626;52.552;13.436;2024-01-15T08:21:09;98575.22;;;2.36;100.00
18985;BME280;9626;52.552;13.436;2024-01-15T08:23:35;98580.75;;;2.21;100.00
18985;BME280;9626;52.552;13.436;2024-01-15T08:26:02;98580.56;;;2.29;100.00
18985;BME280;9626;52.552;13.436;2024-01-15T08:28:28;98579.63;;;2.33;100.00
18985;BME280;9626;52.552;13.436;2024-01-15T08:30:54;98569.31;;;2.27;100.00
18985;BME280;9626;52.552;13.436;2024-01-15T08:33:19;98568.34;;;2.32;100.00
18985;BME280;9626;52.552;13.436;2024-01-15T08:35:46;98553.56;;;2.30;100.00
18985;BME280;9626;52.552;13.436;2024-01-15T08:38:12;98569.19;;;2.33;100.00
18985;BME280;9626;52.552;13.436;2024-01-15T08:40:38;98572.75;;;2.29;100.00
18985;BME280;9626;52.552;13.436;2024-01-15T08:43:04;98607.00;;;2.13;100.00
18985;BME280;9626;52.552;13.436;2024-01-15T08:45:30;98565.94;;;2.22;100.00
18985;BME280;9626;52.552;13.436;2024-01-15T08:47:58;98578.00;;;2.27;100.00
18985;BME280;9626;52.552;13.436;2024-01-15T08:50:24;98583.25;;;2.26;100.00
18985;BME280;9626;52.552;13.436;2024-01-15T08:52:50;98581.59;;;2.22;100.00
18985;BME280;9626;52.552;13.436;2024-01-15T08:55:16;98572.66;;;2.33;100.00
18985;BME280;9626;52.552;13.436;2024-01-15T08:57:42;98572.78;;;2.27;100.00
18985;BME280;9626;52.552;13.436;2024-01-15T09:00:09;98576.34;;;2.23;100.00
18985;BME280;9626;52.552;13.436;2024-01-15T09:02:35;98570.22;;;2.24;100.00
18985;BME280;9626;52.552;13.436;2024-01-15T09:05:02;98573.63;;;2.29;100.00
18985;BME280;9626;52.552;13.436;2024-01-15T09:07:30;98582.09;;;2.41;100.00
18985;BME280;9626;52.552;13.436;2024-01-15T09:09:56;98591.13;;;2.24;100.00
18985;BME280;9626;52.552;13.436;2024-01-15T09:12:22;98573.78;;;2.20;100.00
18985;BME280;9626;52.552;13.436;2024-01-15T09:14:48;98588.38;;;2.30;100.00
18985;BME280;9626;52.552;13.436;2024-01-15T09:17:16;98577.94;;;2.30;100.00
18985;BME280;9626;52.552;13.436;2024-01-15T09:19:42;98596.19;;;2.33;100.00
18985;BME280;9626;52.552;13.436;2024-01-15T09:22:08;98592.88;;;2.24;100.00
18985;BME280;9626;52.552;13.436;2024-01-15T09:24:34;98602.56;;;2.18;100.00
18985;BME280;9626;52.552;13.436;2024-01-15T09:27:00;98598.97;;;2.24;100.00
18985;BME280;9626;52.552;13.436;2024-01-15T09:29:26;98613.53;;;2.36;100.00
18985;BME280;9626;52.552;13.436;2024-01-15T09:31:52;98615.22;;;2.39;100.00
18985;BME280;9626;52.552;13.436;2024-01-15T09:34:19;98604.63;;;2.46;100.00
18985;BME280;9626;52.552;13.436;2024-01-15T09:36:45;98606.00;;;2.66;100.00
18985;BME280;9626;52.552;13.436;2024-01-15T09:39:11;98598.84;;;2.73;100.00
18985;BME280;9626;52.552;13.436;2024-01-15T09:41:37;98602.47;;;3.08;100.00
18985;BME280;9626;52.552;13.436;2024-01-15T09:44:04;98613.38;;;3.27;100.00
18985;BME280;9626;52.552;13.436;2024-01-15T09:46:31;98613.84;;;3.05;100.00
18985;BME280;9626;52.552;13.436;2024-01-15T09:48:58;98614.91;;;2.96;100.00
18985;BME280;9626;52.552;13.436;2024-01-15T09:51:25;98597.50;;;2.95;100.00
18985;BME280;9626;52.552;13.436;2024-01-15T09:53:51;98613.47;;;2.83;100.00
18985;BME280;9626;52.552;13.436;2024-01-15T09:56:18;98599.59;;;2.79;100.00
18985;BME280;9626;52.552;13.436;2024-01-15T09:58:44;98623.00;;;2.85;100.00
18985;BME280;9626;52.552;13.436;2024-01-15T10:01:11;98605.00;;;2.72;100.00
18985;BME280;9626;52.552;13.436;2024-01-15T10:03:39;98602.97;;;2.84;100.00
18985;BME280;9626;52.552;13.436;2024-01-15T10:06:06;98615.38;;;2.75;100.00
18985;BME280;9626;52.552;13.436;2024-01-15T10:08:35;98590.91;;;2.79;100.00
18985;BME280;9626;52.552;13.436;2024-01-15T10:11:02;98597.19;;;2.70;100.00
18985;BME280;9626;52.552;13.436;2024-01-15T10:13:30;98592.66;;;2.77;100.00
18985;BME280;9626;52.552;13.436;2024-01-15T10:15:56;98584.81;;;2.78;100.00
18985;BME280;9626;52.552;13.436;2024-01-15T10:18:24;98592.03;;;2.65;100.00
18985;BME280;9626;52.552;13.436;2024-01-15T10:20:50;98612.69;;;2.78;100.00
18985;BME280;9626;52.552;13.436;2024-01-15T10:23:16;98597.00;;;2.78;100.00
18985;BME280;9626;52.552;13.436;2024-01-15T10:25:42;98584.81;;;2.77;100.00
18985;BME280;9626;52.552;13.436;2024-01-15T10:28:08;98583.88;;;2.81;100.00
18985;BME280;9626;52.552;13.436;2024-01-15T10:30:35;98581.97;;;2.89;100.00
18985;BME280;9626;52.552;13.436;2024-01-15T10:33:03;98583.63;;;2.92;100.00
18985;BME280;9626;52.552;13.436;2024-01-15T10:35:33;98573.22;;;2.90;100.00
18985;BME280;9626;52.552;13.436;2024-01-15T10:38:00;98582.06;;;2.84;100.00
18985;BME280;9626;52.552;13.436;2024-01-15T10:40:27;98574.38;;;2.78;100.00
18985;BME280;9626;52.552;13.436;2024-01-15T10:42:53;98569.97;;;2.79;100.00
18985;BME280;9626;52.552;13.436;2024-01-15T10:45:19;98582.91;;;2.86;100.00
18985;BME280;9626;52.552;13.436;2024-01-15T10:47:46;98584.59;;;2.89;100.00
18985;BME280;9626;52.552;13.436;2024-01-15T10:50:12;98585.41;;;2.91;100.00
18985;BME280;9626;52.552;13.436;2024-01-15T10:52:39;98593.94;;;2.99;100.00
18985;BME280;9626;52.552;13.436;2024-01-15T10:55:09;98580.00;;;2.99;100.00
18985;BME280;9626;52.552;13.436;2024-01-15T10:57:36;98571.72;;;2.80;100.00
18985;BME280;9626;52.552;13.436;2024-01-15T11:00:03;98578.41;;;2.93;100.00
18985;BME280;9626;52.552;13.436;2024-01-15T11:02:32;98580.25;;;2.88;100.00
18985;BME280;9626;52.552;13.436;2024-01-15T11:05:00;98578.06;;;3.07;100.00
18985;BME280;9626;52.552;13.436;2024-01-15T11:07:26;98586.50;;;3.20;100.00
18985;BME280;9626;52.552;13.436;2024-01-15T11:09:52;98585.72;;;3.16;100.00
18985;BME280;9626;52.552;13.436;2024-01-15T11:12:19;98587.50;;;3.14;100.00
18985;BME280;9626;52.552;13.436;2024-01-15T11:14:49;98582.47;;;3.05;100.00
18985;BME280;9626;52.552;13.436;2024-01-15T11:17:21;98584.41;;;2.97;100.00
18985;BME280;9626;52.552;13.436;2024-01-15T11:19:48;98593.25;;;2.91;100.00
18985;BME280;9626;52.552;13.436;2024-01-15T11:24:56;98580.66;;;3.09;100.00
18985;BME280;9626;52.552;13.436;2024-01-15T11:27:45;98587.53;;;3.13;100.00
18985;BME280;9626;52.552;13.436;2024-01-15T11:30:13;98585.75;;;3.13;100.00
18985;BME280;9626;52.552;13.436;2024-01-15T11:32:40;98595.47;;;3.10;100.00
18985;BME280;9626;52.552;13.436;2024-01-15T11:35:10;98592.94;;;3.05;100.00
18985;BME280;9626;52.552;13.436;2024-01-15T11:40:18;98599.16;;;2.99;100.00
18985;BME280;9626;52.552;13.436;2024-01-15T11:42:46;98605.97;;;3.07;100.00
18985;BME280;9626;52.552;13.436;2024-01-15T11:45:15;98607.97;;;2.95;100.00
18985;BME280;9626;52.552;13.436;2024-01-15T11:50:50;98614.13;;;2.50;100.00
18985;BME280;9626;52.552;13.436;2024-01-15T11:53:36;98602.81;;;2.50;100.00
18985;BME280;9626;52.552;13.436;2024-01-15T11:56:03;98600.06;;;2.11;100.00
18985;BME280;9626;52.552;13.436;2024-01-15T11:58:32;98614.41;;;1.90;100.00
18985;BME280;9626;52.552;13.436;2024-01-15T12:00:59;98615.34;;;1.85;100.00
18985;BME280;9626;52.552;13.436;2024-01-15T12:03:25;98624.00;;;1.86;100.00
18985;BME280;9626;52.552;13.436;2024-01-15T12:05:54;98629.03;;;1.98;100.00
18985;BME280;9626;52.552;13.436;2024-01-15T12:08:22;98628.03;;;2.04;100.00
18985;BME280;9626;52.552;13.436;2024-01-15T12:10:48;98624.69;;;1.97;100.00
18985;BME280;9626;52.552;13.436;2024-01-15T12:13:15;98627.84;;;2.15;100.00
18985;BME280;9626;52.552;13.436;2024-01-15T12:15:44;98614.72;;;2.18;100.00
18985;BME280;9626;52.552;13.436;2024-01-15T12:18:15;98615.63;;;2.18;100.00
18985;BME280;9626;52.552;13.436;2024-01-15T12:20:43;98618.28;;;2.14;100.00
18985;BME280;9626;52.552;13.436;2024-01-15T12:23:09;98621.06;;;2.06;100.00
18985;BME280;9626;52.552;13.436;2024-01-15T12:25:39;98629.44;;;2.24;100.00
18985;BME280;9626;52.552;13.436;2024-01-15T12:28:06;98617.28;;;2.23;100.00
18985;BME280;9626;52.552;13.436;2024-01-15T12:30:34;98617.06;;;2.33;100.00
18985;BME280;9626;52.552;13.436;2024-01-15T12:33:05;98613.75;;;2.25;100.00
18985;BME280;9626;52.552;13.436;2024-01-15T12:35:31;98625.16;;;2.19;100.00
18985;BME280;9626;52.552;13.436;2024-01-15T12:37:59;98621.75;;;2.16;100.00
18985;BME280;9626;52.552;13.436;2024-01-15T12:40:26;98625.38;;;2.09;100.00
18985;BME280;9626;52.552;13.436;2024-01-15T12:42:52;98634.28;;;1.97;100.00
18985;BME280;9626;52.552;13.436;2024-01-15T12:45:18;98629.31;;;1.80;100.00
18985;BME280;9626;52.552;13.436;2024-01-15T12:47:44;98634.72;;;1.69;100.00
18985;BME280;9626;52.552;13.436;2024-01-15T12:50:11;98638.22;;;1.69;100.00
18985;BME280;9626;52.552;13.436;2024-01-15T12:52:40;98651.03;;;1.83;100.00
18985;BME280;9626;52.552;13.436;2024-01-15T12:55:08;98653.59;;;1.85;100.00
18985;BME280;9626;52.552;13.436;2024-01-15T12:57:35;98651.16;;;1.77;100.00
18985;BME280;9626;52.552;13.436;2024-01-15T13:00:05;98646.44;;;1.96;100.00
18985;BME280;9626;52.552;13.436;2024-01-15T13:02:41;98660.28;;;2.01;100.00
18985;BME280;9626;52.552;13.436;2024-01-15T13:05:09;98666.34;;;2.03;100.00
18985;BME280;9626;52.552;13.436;2024-01-15T13:07:37;98666.25;;;2.08;100.00